Time;durP1;ratioP1;P1;durP2;ratioP2;P2;SDS_P1;SDS_P2;PMS_P1;PMS_P2;Temp;Humidity;BMP_temperature;BMP_pressure;BME280_temperature;BME280_humidity;BME280_pressure;Samples;Min_cycle;Max_cycle;Signal;HPM_P1;HPM_P2
2023/04/26 00:00:08;;;;;;;15.07;5.40;;;;;;;16.79;100.00;100723.81;2085576;28;20052;-73
2023/04/26 00:01:30;;;;;;;14.35;5.78;;;;;;;16.78;100.00;100719.38;2086377;28;20136;-73
2023/04/26 00:02:54;;;;;;;11.43;5.57;;;;;;;16.77;100.00;100725.59;2075971;28;20540;-73
2023/04/26 00:04:15;;;;;;;23.05;5.90;;;;;;;16.74;100.00;100722.94;2075706;28;20049;-73
2023/04/26 00:05:38;;;;;;;15.02;5.30;;;;;;;16.74;100.00;100730.94;2072584;28;20037;-73
2023/04/26 00:06:59;;;;;;;16.42;5.63;;;;;;;16.73;100.00;100727.44;2078037;28;20065;-73
2023/04/26 00:08:23;;;;;;;15.35;5.75;;;;;;;16.72;100.00;100730.97;2076163;28;20084;-73
2023/04/26 00:09:44;;;;;;;12.57;5.63;;;;;;;16.70;100.00;100730.09;2077717;28;20108;-73
2023/04/26 00:11:07;;;;;;;13.20;5.35;;;;;;;16.71;100.00;100741.66;2086034;28;20092;-73
2023/04/26 00:12:28;;;;;;;11.63;5.05;;;;;;;16.70;100.00;100740.78;2078177;28;20772;-73
2023/04/26 00:13:51;;;;;;;14.68;5.15;;;;;;;16.70;100.00;100742.53;2083593;28;20048;-73
2023/04/26 00:15:13;;;;;;;11.98;6.00;;;;;;;16.70;100.00;100742.53;2085387;28;20045;-73
2023/04/26 00:16:34;;;;;;;10.70;5.55;;;;;;;16.68;100.00;100733.66;2085996;28;20037;-74
2023/04/26 00:17:57;;;;;;;11.52;4.97;;;;;;;16.68;100.00;100742.56;2077955;28;20087;-74
2023/04/26 00:19:18;;;;;;;12.75;5.55;;;;;;;16.67;100.00;100739.94;2075221;28;20057;-74
2023/04/26 00:20:41;;;;;;;12.38;4.95;;;;;;;16.67;100.00;100729.28;2073391;28;20099;-73
2023/04/26 00:22:03;;;;;;;12.95;4.90;;;;;;;16.66;100.00;100722.16;2076661;28;20588;-74
2023/04/26 00:23:28;;;;;;;12.27;5.07;;;;;;;16.65;100.00;100729.28;2083861;28;20512;-74
2023/04/26 00:24:49;;;;;;;12.07;4.95;;;;;;;16.63;100.00;100725.72;2079192;28;20568;-74
2023/04/26 00:26:12;;;;;;;12.95;5.35;;;;;;;16.61;100.00;100722.19;2076948;28;20058;-74
2023/04/26 00:27:33;;;;;;;13.10;4.97;;;;;;;16.60;100.00;100719.56;2077815;28;20401;-73
2023/04/26 00:28:56;;;;;;;15.07;5.25;;;;;;;16.58;100.00;100730.19;2071008;28;20517;-74
2023/04/26 00:30:19;;;;;;;14.05;4.95;;;;;;;16.58;100.00;100724.88;2066096;28;20592;-74
2023/04/26 00:31:40;;;;;;;10.63;5.28;;;;;;;16.57;100.00;100723.09;2075107;28;20072;-74
2023/04/26 00:33:02;;;;;;;11.48;5.15;;;;;;;16.56;100.00;100726.66;2077012;28;20030;-73
2023/04/26 00:34:23;;;;;;;16.00;5.53;;;;;;;16.55;100.00;100722.22;2075833;28;20130;-74
2023/04/26 00:35:46;;;;;;;14.27;5.65;;;;;;;16.55;100.00;100718.66;2079076;28;20401;-73
2023/04/26 00:37:07;;;;;;;13.02;5.55;;;;;;;16.53;100.00;100713.38;2079174;28;20042;-73
2023/04/26 00:38:32;;;;;;;14.25;5.88;;;;;;;16.54;100.00;100720.44;2072379;28;20038;-73
2023/04/26 00:39:56;;;;;;;15.13;5.70;;;;;;;16.52;100.00;100714.28;2086047;28;20056;-73
2023/04/26 00:41:17;;;;;;;13.60;5.95;;;;;;;16.53;100.00;100720.47;2078721;28;20172;-73
2023/04/26 00:42:40;;;;;;;17.30;5.03;;;;;;;16.53;100.00;100712.47;2080358;28;20049;-74
2023/04/26 00:44:01;;;;;;;15.02;6.30;;;;;;;16.53;100.00;100709.81;2077854;28;20057;-73
2023/04/26 00:45:24;;;;;;;14.60;5.85;;;;;;;16.53;100.00;100708.03;2068196;28;20099;-73
2023/04/26 00:46:46;;;;;;;14.52;5.85;;;;;;;16.53;100.00;100710.72;2079874;28;20528;-73
2023/04/26 00:48:08;;;;;;;14.60;5.72;;;;;;;16.53;100.00;100713.38;2067696;28;20098;-73
2023/04/26 00:49:29;;;;;;;10.77;5.22;;;;;;;16.54;100.00;100703.59;2067004;28;20108;-74
2023/04/26 00:50:53;;;;;;;15.23;5.40;;;;;;;16.54;100.00;100698.28;2074504;28;20045;-74
2023/04/26 00:52:14;;;;;;;13.55;5.40;;;;;;;16.53;100.00;100697.38;2076820;28;20120;-73
2023/04/26 00:53:38;;;;;;;11.95;5.85;;;;;;;16.53;100.00;100694.72;2069658;28;20034;-74
2023/04/26 00:55:00;;;;;;;13.63;5.65;;;;;;;16.53;100.00;100692.06;2066501;28;20064;-74
2023/04/26 00:56:23;;;;;;;;;;;;;;;16.52;100.00;100692.06;2069679;28;20038;-73
2023/04/26 00:57:46;;;;;;;12.50;5.63;;;;;;;16.50;100.00;100692.06;2061694;28;19925;-73
2023/04/26 00:59:08;;;;;;;13.88;5.70;;;;;;;16.53;100.00;100694.72;2066124;28;20057;-73
2023/04/26 01:00:30;;;;;;;11.38;5.28;;;;;;;16.56;100.00;100697.34;2064412;28;20050;-73
2023/04/26 01:01:51;;;;;;;12.63;5.05;;;;;;;16.57;100.00;100691.13;2074173;28;20088;-74
2023/04/26 01:03:14;;;;;;;11.23;5.75;;;;;;;16.59;100.00;100696.44;2069268;28;20103;-74
2023/04/26 01:04:36;;;;;;;16.05;5.50;;;;;;;16.60;100.00;100695.56;2064696;28;20042;-74
2023/04/26 01:05:59;;;;;;;13.38;5.57;;;;;;;16.60;100.00;100693.78;2066600;28;20042;-73
2023/04/26 01:07:22;;;;;;;16.38;5.65;;;;;;;16.61;100.00;100690.19;2069398;28;20042;-73
2023/04/26 01:08:44;;;;;;;15.05;6.38;;;;;;;16.63;100.00;100688.41;2075762;28;20042;-73
2023/04/26 01:10:08;;;;;;;12.60;5.75;;;;;;;16.63;100.00;100688.41;2061369;28;20092;-73
2023/04/26 01:11:30;;;;;;;14.13;5.53;;;;;;;16.65;100.00;100685.75;2069558;28;20076;-73
2023/04/26 01:12:53;;;;;;;11.73;4.57;;;;;;;16.65;100.00;100683.06;2069521;28;20137;-73
2023/04/26 01:14:15;;;;;;;12.13;4.97;;;;;;;16.65;100.00;100691.97;2065830;28;20050;-73
2023/04/26 01:15:37;;;;;;;17.00;5.68;;;;;;;16.64;100.00;100676.84;2069251;28;20045;-73
2023/04/26 01:17:00;;;;;;;13.18;5.45;;;;;;;16.63;100.00;100695.53;2080333;28;20045;-73
2023/04/26 01:18:21;;;;;;;13.55;4.95;;;;;;;16.62;100.00;100688.41;2063699;28;20050;-74
2023/04/26 01:19:52;;;;;;;13.48;6.13;;;;;;;16.61;100.00;100686.66;2074303;28;20053;-73
2023/04/26 01:21:21;;;;;;;13.57;5.60;;;;;;;16.58;100.00;100687.56;2072023;28;20141;-73
2023/04/26 01:22:45;;;;;;;10.70;4.65;;;;;;;16.56;100.00;100681.34;2062673;28;20396;-73
2023/04/26 01:24:09;;;;;;;14.30;6.15;;;;;;;16.54;100.00;100675.13;2074096;28;20075;-74
2023/04/26 01:25:33;;;;;;;16.15;6.00;;;;;;;16.52;100.00;100679.63;2070038;28;20365;-73
2023/04/26 01:26:57;;;;;;;14.00;5.95;;;;;;;16.51;100.00;100679.63;2066366;28;20050;-73
2023/04/26 01:28:19;;;;;;;13.93;5.60;;;;;;;16.48;100.00;100669.88;2066021;28;21309;-73
2023/04/26 01:29:41;;;;;;;19.13;5.70;;;;;;;16.48;100.00;100675.19;2071722;28;20064;-73
2023/04/26 01:31:02;;;;;;;15.00;5.68;;;;;;;16.48;100.00;100677.88;2071894;28;20080;-73
2023/04/26 01:32:26;;;;;;;18.20;6.22;;;;;;;16.48;100.00;100668.97;2076430;28;20042;-73
2023/04/26 01:33:47;;;;;;;16.65;6.22;;;;;;;16.48;100.00;100679.63;2077407;28;20115;-73
2023/04/26 01:35:10;;;;;;;14.68;5.30;;;;;;;16.46;100.00;100674.34;2069419;28;20042;-73
2023/04/26 01:36:31;;;;;;;13.02;5.95;;;;;;;16.45;100.00;100675.25;2060949;28;20050;-73
2023/04/26 01:37:56;;;;;;;18.42;5.80;;;;;;;16.45;100.00;100679.69;2077588;28;20057;-74
2023/04/26 01:39:18;;;;;;;12.27;5.80;;;;;;;16.43;100.00;100681.47;2068308;28;20048;-73
2023/04/26 01:40:44;;;;;;;12.38;5.97;;;;;;;16.41;100.00;100668.16;2074785;28;20110;-73
2023/04/26 01:42:07;;;;;;;15.73;7.03;;;;;;;16.40;100.00;100674.41;2071772;28;20156;-73
2023/04/26 01:43:28;;;;;;;13.32;6.18;;;;;;;16.39;100.00;100667.31;2070921;28;20644;-74
2023/04/26 01:44:52;;;;;;;14.02;6.95;;;;;;;16.39;100.00;100662.00;2069190;28;20069;-73
2023/04/26 01:46:14;;;;;;;15.98;7.03;;;;;;;16.38;100.00;100662.88;2078032;28;20405;-73
2023/04/26 01:47:36;;;;;;;12.77;5.90;;;;;;;16.37;100.00;100665.56;2077170;28;20120;-74
2023/04/26 01:48:57;;;;;;;16.20;6.03;;;;;;;16.35;100.00;100669.09;2079863;28;20054;-73
2023/04/26 01:50:20;;;;;;;10.68;5.22;;;;;;;16.33;100.00;100676.25;2063511;28;20057;-73
2023/04/26 01:51:42;;;;;;;11.32;6.30;;;;;;;16.32;100.00;100678.94;2069305;28;20379;-73
2023/04/26 01:53:06;;;;;;;10.77;5.72;;;;;;;16.32;100.00;100671.81;2069223;28;20042;-73
2023/04/26 01:54:27;;;;;;;14.45;5.93;;;;;;;16.31;100.00;100679.81;2069234;28;20518;-73
2023/04/26 01:55:49;;;;;;;13.70;5.72;;;;;;;16.29;100.00;100671.84;2068951;28;20053;-73
2023/04/26 01:57:12;;;;;;;16.50;6.05;;;;;;;16.29;100.00;100673.59;2061068;28;20050;-74
2023/04/26 01:58:34;;;;;;;13.48;6.13;;;;;;;16.28;100.00;100672.72;2066888;28;20045;-73
2023/04/26 01:59:58;;;;;;;11.68;5.07;;;;;;;16.28;100.00;100666.50;2060818;28;20074;-73
2023/04/26 02:01:21;;;;;;;12.35;5.88;;;;;;;16.28;100.00;100664.72;2071341;28;20061;-74
2023/04/26 02:02:44;;;;;;;15.07;6.50;;;;;;;16.27;100.00;100668.31;2074662;28;20148;-73
2023/04/26 02:04:06;;;;;;;13.63;5.90;;;;;;;16.27;100.00;100664.78;2071577;28;20050;-73
2023/04/26 02:05:27;;;;;;;12.38;5.15;;;;;;;16.26;100.00;100668.31;2077233;28;20049;-72
2023/04/26 02:06:50;;;;;;;14.07;6.50;;;;;;;16.26;100.00;100668.31;2069137;28;20050;-73
2023/04/26 02:08:14;;;;;;;14.80;6.82;;;;;;;16.24;100.00;100671.00;2066522;28;20053;-73
2023/04/26 02:09:36;;;;;;;16.67;6.38;;;;;;;16.23;100.00;100665.69;2074864;28;20107;-74
2023/04/26 02:10:58;;;;;;;24.67;6.75;;;;;;;16.22;100.00;100661.25;2077425;28;20050;-73
2023/04/26 02:12:20;;;;;;;16.38;6.25;;;;;;;16.22;100.00;100661.25;2069100;28;20498;-73
2023/04/26 02:13:43;;;;;;;12.68;6.38;;;;;;;16.21;100.00;100644.38;2074890;28;20475;-73
2023/04/26 02:15:06;;;;;;;16.13;6.78;;;;;;;16.21;100.00;100648.84;2067611;28;20037;-73
2023/04/26 02:16:28;;;;;;;14.52;6.80;;;;;;;16.20;100.00;100644.41;2064955;28;20080;-74
2023/04/26 02:17:52;;;;;;;14.05;5.82;;;;;;;16.20;100.00;100655.06;2068943;28;20169;-73
2023/04/26 02:19:14;;;;;;;16.15;6.95;;;;;;;16.19;100.00;100658.63;2064603;28;20053;-73
2023/04/26 02:20:37;;;;;;;13.73;6.35;;;;;;;16.19;100.00;100658.63;2066321;28;20522;-74
2023/04/26 02:21:58;;;;;;;14.98;6.40;;;;;;;16.18;100.00;100662.19;2073596;28;20607;-73
2023/04/26 02:23:23;;;;;;;15.43;7.03;;;;;;;16.18;100.00;100665.72;2075361;28;20561;-73
2023/04/26 02:24:44;;;;;;;13.63;6.13;;;;;;;16.18;100.00;100663.06;2069220;28;20138;-74
2023/04/26 02:26:07;;;;;;;13.52;6.28;;;;;;;16.17;100.00;100658.63;2058454;28;20109;-74
2023/04/26 02:27:29;;;;;;;13.52;6.38;;;;;;;16.18;100.00;100662.19;2069802;28;20409;-73
2023/04/26 02:28:51;;;;;;;13.63;5.30;;;;;;;16.17;100.00;100668.41;2068906;28;20042;-73
2023/04/26 02:30:13;;;;;;;18.38;6.10;;;;;;;16.17;100.00;100676.38;2062041;28;20169;-73
2023/04/26 02:31:35;;;;;;;14.27;5.78;;;;;;;16.16;100.00;100667.50;2060953;28;20038;-73
2023/04/26 02:32:57;;;;;;;14.77;6.70;;;;;;;16.15;100.00;100673.72;2063411;28;20133;-73
2023/04/26 02:34:20;;;;;;;12.43;5.65;;;;;;;16.14;100.00;100668.44;2060704;28;20053;-72
2023/04/26 02:35:42;;;;;;;15.20;6.70;;;;;;;16.15;100.00;100665.75;2067721;28;20057;-73
2023/04/26 02:37:06;;;;;;;14.73;6.22;;;;;;;16.18;100.00;100664.84;2076117;28;20095;-73
2023/04/26 02:38:29;;;;;;;13.23;5.85;;;;;;;16.18;100.00;100664.84;2063796;28;20626;-73
2023/04/26 02:39:52;;;;;;;13.80;6.47;;;;;;;16.20;100.00;100663.06;2073462;28;20046;-73
2023/04/26 02:41:15;;;;;;;13.85;6.75;;;;;;;16.20;100.00;100661.28;2062991;28;20523;-73
2023/04/26 02:42:36;;;;;;;16.02;6.10;;;;;;;16.20;100.00;100655.97;2069773;28;20038;-73
2023/04/26 02:43:59;;;;;;;13.85;6.13;;;;;;;16.21;100.00;100659.50;2072833;28;20400;-73
2023/04/26 02:45:20;;;;;;;14.07;6.05;;;;;;;16.22;100.00;100661.25;2067206;28;20185;-74
2023/04/26 02:46:43;;;;;;;15.68;6.93;;;;;;;16.22;100.00;100661.25;2062099;28;20645;-73
2023/04/26 02:48:05;;;;;;;15.80;6.13;;;;;;;16.21;100.00;100663.03;2077180;28;20048;-73
2023/04/26 02:49:28;;;;;;;;;;;;;;;16.19;100.00;100669.28;2065365;28;20384;-73
2023/04/26 02:50:49;;;;;;;;;;;;;;;16.16;100.00;100667.50;2068442;28;20135;-73
2023/04/26 02:52:11;;;;;;;13.85;6.15;;;;;;;16.16;100.00;100670.19;2065321;28;19921;-73
2023/04/26 02:53:35;;;;;;;13.90;6.55;;;;;;;16.19;100.00;100666.63;2070661;28;20477;-74
2023/04/26 02:54:58;;;;;;;12.98;6.35;;;;;;;16.19;100.00;100664.84;2069775;28;20132;-73
2023/04/26 02:56:21;;;;;;;20.27;6.82;;;;;;;16.20;100.00;100658.63;2074349;28;20045;-73
2023/04/26 02:57:42;;;;;;;18.33;7.13;;;;;;;16.22;100.00;100667.44;2073472;28;20367;-74
2023/04/26 02:59:06;;;;;;;15.45;6.03;;;;;;;16.21;100.00;100657.69;2070369;28;20056;-73
2023/04/26 03:00:27;;;;;;;17.85;6.57;;;;;;;16.22;100.00;100663.91;2064460;28;20068;-73
2023/04/26 03:01:49;;;;;;;13.88;6.85;;;;;;;16.21;100.00;100662.16;2067611;28;20049;-74
2023/04/26 03:03:11;;;;;;;13.23;6.45;;;;;;;16.22;100.00;100658.56;2062498;28;20590;-73
2023/04/26 03:04:34;;;;;;;12.32;6.28;;;;;;;16.21;100.00;100663.03;2074543;28;20065;-73
2023/04/26 03:05:57;;;;;;;12.88;6.22;;;;;;;16.20;100.00;100663.06;2069493;28;20402;-73
2023/04/26 03:07:20;;;;;;;14.57;6.95;;;;;;;16.19;100.00;100667.50;2074522;28;20045;-73
2023/04/26 03:08:42;;;;;;;16.88;6.38;;;;;;;16.20;100.00;100660.41;2067089;28;20152;-74
2023/04/26 03:10:07;;;;;;;11.95;6.15;;;;;;;16.19;100.00;100666.63;2067970;28;20458;-73
2023/04/26 03:11:30;;;;;;;18.63;7.05;;;;;;;16.17;100.00;100669.28;2075082;28;20502;-74
2023/04/26 03:12:51;;;;;;;16.23;6.88;;;;;;;16.17;100.00;100673.72;2061951;28;20050;-73
2023/04/26 03:14:13;;;;;;;17.52;6.35;;;;;;;16.16;100.00;100671.94;2067974;28;20045;-74
2023/04/26 03:15:35;;;;;;;17.13;6.55;;;;;;;16.16;100.00;100675.50;2070353;28;20460;-74
2023/04/26 03:16:57;;;;;;;13.48;5.72;;;;;;;16.17;100.00;100676.38;2074261;28;20049;-73
2023/04/26 03:18:20;;;;;;;10.40;5.45;;;;;;;16.19;100.00;100677.28;2066529;28;20116;-74
2023/04/26 03:19:42;;;;;;;12.18;5.28;;;;;;;16.20;100.00;100679.94;2068775;28;20057;-74
2023/04/26 03:21:05;;;;;;;12.80;5.85;;;;;;;16.21;100.00;100675.47;2069571;28;20066;-73
2023/04/26 03:22:28;;;;;;;12.20;5.97;;;;;;;16.19;100.00;100677.28;2081894;28;20044;-73
2023/04/26 03:23:50;;;;;;;14.23;5.50;;;;;;;16.18;100.00;100679.06;2070896;28;20042;-74
2023/04/26 03:25:14;;;;;;;12.98;6.07;;;;;;;16.18;100.00;100680.81;2070164;28;20050;-73
2023/04/26 03:26:37;;;;;;;11.95;5.63;;;;;;;16.17;100.00;100676.38;2074649;28;20049;-73
2023/04/26 03:27:59;;;;;;;16.15;6.82;;;;;;;16.17;100.00;100671.06;2077660;28;20183;-73
2023/04/26 03:29:22;;;;;;;17.38;6.88;;;;;;;16.16;100.00;100670.19;2064347;28;20058;-73
2023/04/26 03:30:45;;;;;;;16.02;6.50;;;;;;;16.14;100.00;100668.44;2067792;28;20399;-73
2023/04/26 03:32:06;;;;;;;18.77;7.28;;;;;;;16.13;100.00;100669.34;2063427;28;20049;-73
2023/04/26 03:33:29;;;;;;;18.52;6.82;;;;;;;16.13;100.00;100672.00;2067099;28;20049;-73
2023/04/26 03:34:50;;;;;;;21.13;6.55;;;;;;;16.13;100.00;100672.00;2075926;28;20137;-74
2023/04/26 03:36:13;;;;;;;13.27;6.50;;;;;;;16.12;100.00;100678.22;2078062;28;20050;-74
2023/04/26 03:37:38;;;;;;;12.73;5.85;;;;;;;16.12;100.00;100670.22;2070265;28;20694;-74
2023/04/26 03:39:04;;;;;;;13.05;5.57;;;;;;;16.13;100.00;100672.00;2066689;28;20516;-73
2023/04/26 03:40:25;;;;;;;13.88;6.35;;;;;;;16.13;100.00;100674.66;2067661;28;20536;-73
2023/04/26 03:41:49;;;;;;;15.95;6.53;;;;;;;16.12;100.00;100673.78;2066322;28;20057;-73
2023/04/26 03:43:10;;;;;;;16.55;6.63;;;;;;;16.12;100.00;100668.44;2062358;28;20050;-74
2023/04/26 03:44:34;;;;;;;16.50;6.78;;;;;;;16.13;100.00;100669.34;2066767;28;20056;-73
2023/04/26 03:45:55;;;;;;;13.20;5.68;;;;;;;16.14;100.00;100671.09;2067573;28;20633;-73
2023/04/26 03:47:17;;;;;;;19.50;7.18;;;;;;;16.14;100.00;100665.78;2067912;28;20056;-73
2023/04/26 03:48:39;;;;;;;16.13;7.10;;;;;;;16.16;100.00;100674.63;2069947;28;20042;-74
2023/04/26 03:50:02;;;;;;;;;;;;;;;16.15;100.00;100676.41;2067541;28;20560;-73
2023/04/26 03:51:26;;;;;;;16.50;6.57;;;;;;;16.16;100.00;100675.50;2062242;28;20438;-74
2023/04/26 03:52:48;;;;;;;18.15;6.65;;;;;;;16.18;100.00;100679.06;2070075;28;20506;-73
2023/04/26 03:54:13;;;;;;;12.32;6.38;;;;;;;16.20;100.00;100674.59;2061474;28;20537;-74
2023/04/26 03:55:34;;;;;;;16.50;6.47;;;;;;;16.21;100.00;100672.81;2067933;28;20033;-73
2023/04/26 03:56:57;;;;;;;15.48;5.82;;;;;;;16.21;100.00;100680.81;2074633;28;20101;-74
2023/04/26 03:58:18;;;;;;;15.98;6.18;;;;;;;16.23;100.00;100682.53;2075762;28;20041;-74
2023/04/26 03:59:41;;;;;;;15.80;6.28;;;;;;;16.25;100.00;100685.22;2075393;28;20049;-74
2023/04/26 04:01:03;;;;;;;15.05;6.00;;;;;;;16.27;100.00;100692.31;2084924;28;20060;-73
2023/04/26 04:02:25;;;;;;;16.00;5.50;;;;;;;16.30;100.00;100694.03;2070257;28;20148;-73
2023/04/26 04:03:48;;;;;;;16.58;5.93;;;;;;;16.33;100.00;100689.56;2059219;28;20050;-72
2023/04/26 04:05:10;;;;;;;14.52;5.45;;;;;;;16.37;100.00;100692.19;2067424;28;20092;-74
2023/04/26 04:06:32;;;;;;;11.85;5.10;;;;;;;16.39;100.00;100691.28;2061633;28;20085;-74
2023/04/26 04:07:55;;;;;;;11.18;5.50;;;;;;;16.42;100.00;100693.91;2069784;28;20046;-73
2023/04/26 04:09:19;;;;;;;14.35;5.18;;;;;;;16.46;100.00;100695.69;2061839;28;20403;-73
2023/04/26 04:10:41;;;;;;;13.05;5.57;;;;;;;16.50;100.00;100693.84;2062054;28;20104;-74
2023/04/26 04:12:05;;;;;;;11.95;5.32;;;;;;;16.54;100.00;100701.78;2059508;28;20410;-74
2023/04/26 04:13:26;;;;;;;17.67;5.60;;;;;;;16.56;100.00;100700.00;2061878;28;20042;-72
2023/04/26 04:14:49;;;;;;;20.30;5.95;;;;;;;16.61;100.00;100699.97;2067128;28;20052;-74
2023/04/26 04:16:12;;;;;;;14.50;5.03;;;;;;;16.64;100.00;100698.19;2064037;28;20116;-74
2023/04/26 04:17:33;;;;;;;14.82;5.85;;;;;;;16.70;100.00;100695.44;2068140;28;20050;-73
2023/04/26 04:18:55;;;;;;;13.43;5.93;;;;;;;16.74;100.00;100702.50;2065417;28;20045;-74
2023/04/26 04:20:17;;;;;;;15.60;4.90;;;;;;;16.80;100.00;100701.59;2061349;28;20458;-74
2023/04/26 04:21:42;;;;;;;13.98;5.03;;;;;;;16.83;100.00;100703.31;2069398;28;20046;-73
2023/04/26 04:23:06;;;;;;;11.95;4.88;;;;;;;16.87;100.00;100695.25;2067641;28;20058;-73
2023/04/26 04:24:31;;;;;;;13.48;5.03;;;;;;;16.92;100.00;100696.09;2066549;28;20108;-74
2023/04/26 04:25:53;;;;;;;14.27;4.82;;;;;;;16.96;100.00;100699.59;2075487;28;20053;-74
2023/04/26 04:27:16;;;;;;;14.25;5.20;;;;;;;17.01;100.00;100689.75;2068529;28;20513;-74
2023/04/26 04:28:40;;;;;;;14.15;4.90;;;;;;;17.07;100.00;100695.91;2076945;28;20542;-73
2023/04/26 04:30:06;;;;;;;11.50;4.68;;;;;;;17.14;100.00;100700.25;2071272;28;20080;-73
2023/04/26 04:31:28;;;;;;;10.10;4.75;;;;;;;17.23;100.00;100698.41;2078951;28;20136;-74
2023/04/26 04:32:51;;;;;;;;;;;;;;;17.27;100.00;100701.00;2061892;28;20054;-73
2023/04/26 04:34:15;;;;;;;11.38;4.30;;;;;;;17.35;100.00;100699.13;2069392;28;20429;-73
2023/04/26 04:35:38;;;;;;;12.10;5.07;;;;;;;17.44;100.00;100696.34;2068553;28;20402;-73
2023/04/26 04:37:01;;;;;;;12.20;5.03;;;;;;;17.56;100.00;100697.06;2066350;28;20120;-73
2023/04/26 04:38:23;;;;;;;15.82;4.80;;;;;;;17.65;100.00;100696.97;2066198;28;20042;-73
2023/04/26 04:39:48;;;;;;;14.48;5.05;;;;;;;17.72;100.00;100696.84;2067453;28;20057;-74
2023/04/26 04:41:11;;;;;;;13.30;5.00;;;;;;;17.81;100.00;100698.50;2070529;28;20041;-74
2023/04/26 04:42:34;;;;;;;13.45;4.45;;;;;;;17.88;100.00;100685.03;2069203;28;20091;-74
2023/04/26 04:44:00;;;;;;;11.20;3.92;;;;;;;17.99;100.00;100686.63;2065692;28;20484;-74
2023/04/26 04:45:22;;;;;;;15.38;4.93;;;;;;;18.07;100.00;100676.72;2066301;28;20045;-73
2023/04/26 04:46:46;;;;;;;12.73;4.57;;;;;;;18.14;100.00;100684.63;2069635;28;20057;-74
2023/04/26 04:48:10;;;;;;;11.48;4.72;;;;;;;18.21;100.00;100677.38;2071543;28;20049;-74
2023/04/26 04:49:32;;;;;;;13.05;4.75;;;;;;;18.28;100.00;100663.88;2070764;28;20052;-73
2023/04/26 04:50:55;;;;;;;12.05;4.35;;;;;;;18.35;100.00;100664.66;2074069;28;20057;-74
2023/04/26 04:52:16;;;;;;;11.30;4.18;;;;;;;18.41;100.00;100655.66;2076632;28;20068;-74
2023/04/26 04:53:38;;;;;;;11.68;3.50;;;;;;;18.45;100.00;100646.66;2065187;28;20410;-73
2023/04/26 04:55:03;;;;;;;13.60;4.32;;;;;;;18.51;100.00;100666.13;2067930;28;20057;-73
2023/04/26 04:56:25;;;;;;;15.75;5.03;;;;;;;18.51;100.00;100658.09;2086071;28;20045;-74
2023/04/26 04:57:49;;;;;;;14.45;4.28;;;;;;;18.51;100.00;100660.78;2069849;28;20056;-73
2023/04/26 04:59:11;;;;;;;14.02;4.20;;;;;;;18.51;100.00;100657.25;2073993;28;20149;-74
2023/04/26 05:00:36;;;;;;;13.05;4.03;;;;;;;18.51;100.00;100655.44;2074772;28;20076;-73
2023/04/26 05:02:09;;;;;;;12.30;4.30;;;;;;;18.54;100.00;100660.75;2070553;28;20057;-73
2023/04/26 05:03:32;;;;;;;13.13;4.78;;;;;;;18.55;100.00;100651.84;2065806;28;20132;-74
2023/04/26 05:04:56;;;;;;;12.70;3.90;;;;;;;18.56;100.00;100652.72;2067243;28;20058;-73
2023/04/26 05:06:18;;;;;;;12.75;4.55;;;;;;;18.59;100.00;100658.00;2066001;28;20114;-74
2023/04/26 05:07:41;;;;;;;12.45;4.45;;;;;;;18.60;100.00;100657.97;2073735;28;20144;-73
2023/04/26 05:09:04;;;;;;;14.85;4.55;;;;;;;18.64;100.00;100664.19;2069469;28;20137;-74
2023/04/26 05:10:29;;;;;;;14.30;3.72;;;;;;;18.64;100.00;100661.50;2066277;28;20050;-74
2023/04/26 05:11:51;;;;;;;13.38;3.72;;;;;;;18.64;100.00;100658.81;2066785;28;20558;-74
2023/04/26 05:13:13;;;;;;;13.30;4.45;;;;;;;18.66;100.00;100652.53;2064321;28;20140;-74
2023/04/26 05:14:35;;;;;;;12.10;4.32;;;;;;;18.68;100.00;100657.84;2069717;28;20101;-73
2023/04/26 05:15:57;;;;;;;14.23;4.32;;;;;;;18.69;100.00;100662.28;2064565;28;20536;-73
2023/04/26 05:17:20;;;;;;;12.23;3.90;;;;;;;18.69;100.00;100662.28;2074089;28;20410;-74
2023/04/26 05:18:42;;;;;;;16.27;4.07;;;;;;;18.67;100.00;100658.75;2071257;28;20053;-73
2023/04/26 05:20:07;;;;;;;8.32;3.95;;;;;;;18.67;100.00;100650.72;2063822;28;20425;-73
2023/04/26 05:21:30;;;;;;;14.00;4.72;;;;;;;18.66;100.00;100657.88;2070678;28;20057;-73
2023/04/26 05:22:51;;;;;;;14.88;4.13;;;;;;;18.67;100.00;100656.06;2069017;28;20053;-73
2023/04/26 05:24:14;;;;;;;10.32;4.22;;;;;;;18.67;100.00;100656.06;2077448;28;20095;-74
2023/04/26 05:25:39;;;;;;;11.85;4.45;;;;;;;18.69;100.00;100648.91;2071059;28;20096;-74
2023/04/26 05:27:20;;;;;;;14.13;4.60;;;;;;;18.66;100.00;100656.97;2088271;28;20069;-74
2023/04/26 05:29:02;;;;;;;;;;;;;;;18.65;100.00;100660.56;2072150;28;20049;-72
2023/04/26 05:30:45;;;;;;;12.10;4.78;;;;;;;18.68;100.00;100655.16;2081432;28;20016;-73
2023/04/26 05:32:23;;;;;;;11.40;4.60;;;;;;;18.69;100.00;100648.91;2070718;28;20046;-73
2023/04/26 05:34:02;;;;;;;15.98;5.03;;;;;;;18.70;100.00;100650.69;2074348;28;20579;-75
2023/04/26 05:35:29;;;;;;;13.30;5.57;;;;;;;18.71;100.00;100649.75;2061428;28;20394;-75
2023/04/26 05:36:52;;;;;;;11.07;3.95;;;;;;;18.75;100.00;100658.59;2074629;28;20576;-74
2023/04/26 05:38:13;;;;;;;11.45;4.28;;;;;;;18.77;100.00;100662.16;2065799;28;20456;-75
2023/04/26 05:39:36;;;;;;;13.40;4.57;;;;;;;18.81;100.00;100648.66;2068820;28;20073;-75
2023/04/26 05:41:00;;;;;;;13.18;4.22;;;;;;;18.88;100.00;100666.38;2068342;28;20046;-75
2023/04/26 05:42:23;;;;;;;16.02;4.65;;;;;;;18.97;100.00;100668.84;2065868;28;20498;-75
2023/04/26 05:43:47;;;;;;;11.30;4.28;;;;;;;19.07;100.00;100667.75;2065602;28;20046;-75
2023/04/26 05:45:10;;;;;;;18.27;5.50;;;;;;;19.17;100.00;100662.19;2066936;28;20565;-74
2023/04/26 05:46:34;;;;;;;11.35;4.00;;;;;;;19.22;100.00;100676.38;2064771;28;20042;-75
2023/04/26 05:47:55;;;;;;;13.00;4.25;;;;;;;19.24;100.00;100671.84;2071731;28;20426;-75
2023/04/26 05:49:18;;;;;;;16.27;5.80;;;;;;;19.26;100.00;100660.22;2069154;28;20143;-74
2023/04/26 05:50:40;;;;;;;15.60;4.70;;;;;;;19.31;100.00;100685.06;2066269;28;20622;-75
2023/04/26 05:52:03;;;;;;;11.23;3.95;;;;;;;19.34;100.00;100679.66;2065029;28;20141;-75
2023/04/26 05:53:25;;;;;;;13.80;4.63;;;;;;;19.37;100.00;100682.25;2065320;28;20107;-75
2023/04/26 05:54:48;;;;;;;11.55;4.47;;;;;;;19.41;100.00;100673.28;2063901;28;20069;-75
2023/04/26 05:56:12;;;;;;;10.80;4.70;;;;;;;19.45;100.00;100655.31;2067595;28;20054;-75
2023/04/26 05:57:35;;;;;;;16.75;5.05;;;;;;;19.43;100.00;100668.75;2070018;28;20535;-74
2023/04/26 05:58:57;;;;;;;13.75;4.38;;;;;;;19.46;100.00;100671.41;2070234;28;20045;-75
2023/04/26 06:00:22;;;;;;;;;;;;;;;19.47;100.00;100669.59;2064565;28;20074;-75
2023/04/26 06:01:44;;;;;;;10.82;4.80;;;;;;;19.44;100.00;100664.25;2070767;28;19929;-75
2023/04/26 06:03:07;;;;;;;14.23;4.82;;;;;;;19.41;100.00;100670.59;2061251;28;20518;-75
2023/04/26 06:04:31;;;;;;;14.50;5.65;;;;;;;19.37;100.00;100651.94;2058769;28;20054;-75
2023/04/26 06:06:00;;;;;;;10.93;4.53;;;;;;;19.28;100.00;100666.41;2071251;28;20041;-75
2023/04/26 06:07:23;;;;;;;12.63;4.78;;;;;;;19.24;100.00;100662.03;2060583;28;20058;-75
2023/04/26 06:08:45;;;;;;;15.98;4.97;;;;;;;19.21;100.00;100654.06;2071478;28;20425;-75
2023/04/26 06:10:09;;;;;;;14.07;4.45;;;;;;;19.17;100.00;100651.47;2060347;28;20042;-75
2023/04/26 06:11:34;;;;;;;14.38;5.47;;;;;;;19.18;100.00;100659.47;2067192;28;20084;-75
2023/04/26 06:12:56;;;;;;;12.20;5.50;;;;;;;19.20;100.00;100652.31;2064255;28;20445;-74
2023/04/26 06:14:20;;;;;;;16.30;5.75;;;;;;;19.24;100.00;100650.44;2063524;28;20034;-74
2023/04/26 06:15:43;;;;;;;11.93;4.28;;;;;;;19.27;100.00;100661.09;2073124;28;20152;-75
2023/04/26 06:17:06;;;;;;;12.60;4.47;;;;;;;19.28;100.00;100669.09;2063403;28;20060;-75
2023/04/26 06:18:29;;;;;;;13.00;4.60;;;;;;;19.31;100.00;100660.09;2061505;28;20089;-74